Burzaco, Argentina
Current Conditions -  °F | °C
As of 2:00 PM on Tuesday 21 Oct 2014 (Local Time) from SAEZ Reporting Station
Clear Clear  
Wind Chill: 82°   Ceiling: Unl
Heat Index: 82°   Visibility: 6mi
Dew Point: 54°   Wind: 13mph
Humidity: 37%   Direction: 330°NNW
Pressure: 30.06"   Gusts: NA
Location:  34.82°S, 58.4°W
Report Text: SAEZ 211700Z 33011KT 290V360 CAVOK 28/12 Q1018
Loading
Personal Weather Stations






























Interactive Weather Map
Tropical Storm Tracking
New forecast layout! Learn more

10-Day Weather Forecast

Advertisements
Track Severe Weather on mobile